createdAt,value
2017-06-27T00:01:56.864Z,19.52
2017-06-27T00:04:22.837Z,19.35
2017-06-27T00:06:48.655Z,19.59
2017-06-27T00:09:14.505Z,19.53
2017-06-27T00:11:40.407Z,19.35
2017-06-27T00:14:06.222Z,18.92
2017-06-27T00:16:32.089Z,19.39
2017-06-27T00:18:57.953Z,19.46
2017-06-27T00:21:23.772Z,19.60
2017-06-27T00:23:49.615Z,19.71
2017-06-27T00:26:15.675Z,19.70
2017-06-27T00:28:41.556Z,19.79
2017-06-27T00:31:07.368Z,19.83
2017-06-27T00:33:33.215Z,19.56
2017-06-27T00:35:59.033Z,19.69
2017-06-27T00:38:24.871Z,19.63
2017-06-27T00:40:50.699Z,19.65
2017-06-27T00:43:16.520Z,19.67
2017-06-27T00:45:42.418Z,19.71
2017-06-27T00:48:08.301Z,19.81
2017-06-27T00:50:34.174Z,19.71
2017-06-27T00:53:00.043Z,19.72
2017-06-27T00:55:25.959Z,19.62
2017-06-27T00:57:52.255Z,19.38
2017-06-27T01:00:18.099Z,19.66
2017-06-27T01:02:44.026Z,19.69
2017-06-27T01:05:09.885Z,19.71
2017-06-27T01:07:35.719Z,19.52
2017-06-27T01:10:01.562Z,19.70
2017-06-27T01:12:27.381Z,19.57
2017-06-27T01:14:53.254Z,19.53
2017-06-27T01:17:19.146Z,19.54
2017-06-27T01:19:44.972Z,19.43
2017-06-27T01:22:10.829Z,19.37
2017-06-27T01:24:36.715Z,19.57
2017-06-27T01:27:02.628Z,19.48
2017-06-27T01:29:28.509Z,19.09
2017-06-27T01:31:54.380Z,19.09
2017-06-27T01:34:20.445Z,18.94
2017-06-27T01:36:46.346Z,18.65
2017-06-27T01:39:12.155Z,18.62
2017-06-27T01:41:38.026Z,18.66
2017-06-27T01:44:03.857Z,18.52
2017-06-27T01:46:29.701Z,18.49
2017-06-27T01:48:55.666Z,18.58
2017-06-27T01:51:21.492Z,18.62
2017-06-27T01:53:47.334Z,18.63
2017-06-27T01:56:13.240Z,18.59
2017-06-27T01:58:39.087Z,18.60
2017-06-27T02:01:04.989Z,18.81
2017-06-27T02:03:30.844Z,18.77
2017-06-27T02:05:56.753Z,18.66
2017-06-27T02:08:22.567Z,18.59
2017-06-27T02:10:48.509Z,18.78
2017-06-27T02:13:14.443Z,18.39
2017-06-27T02:15:40.325Z,18.58
2017-06-27T02:18:06.153Z,18.80
2017-06-27T02:20:32.071Z,18.63
2017-06-27T02:22:57.935Z,18.41
2017-06-27T02:25:23.817Z,18.47
2017-06-27T02:27:49.737Z,18.41
2017-06-27T02:30:15.577Z,18.44
2017-06-27T02:32:41.421Z,18.55
2017-06-27T02:35:07.277Z,18.56
2017-06-27T02:37:33.170Z,18.65
2017-06-27T02:39:59.042Z,18.75
2017-06-27T02:42:24.934Z,18.85
2017-06-27T02:44:50.873Z,18.73
2017-06-27T02:47:16.780Z,18.73
2017-06-27T02:49:42.701Z,18.69
2017-06-27T02:52:08.559Z,18.20
2017-06-27T02:54:34.373Z,18.38
2017-06-27T02:57:00.337Z,18.33
2017-06-27T02:59:26.293Z,18.13
2017-06-27T03:01:52.261Z,18.21
2017-06-27T03:04:18.070Z,18.13
2017-06-27T03:06:43.887Z,18.03
2017-06-27T03:09:09.761Z,17.97
2017-06-27T03:11:35.596Z,18.26
2017-06-27T03:14:01.540Z,18.23
2017-06-27T03:16:27.377Z,18.22
2017-06-27T03:18:53.209Z,18.13
2017-06-27T03:21:19.037Z,17.97
2017-06-27T03:23:44.908Z,18.04
2017-06-27T03:26:10.809Z,18.01
2017-06-27T03:28:36.618Z,18.02
2017-06-27T03:31:02.485Z,18.00
2017-06-27T03:33:28.344Z,17.99
2017-06-27T03:35:54.170Z,17.91
2017-06-27T03:38:19.961Z,18.02
2017-06-27T03:40:45.823Z,17.90
2017-06-27T03:43:11.729Z,17.86
2017-06-27T03:45:37.570Z,17.97
2017-06-27T03:48:03.386Z,18.02
2017-06-27T03:50:29.213Z,18.02
2017-06-27T03:52:55.001Z,18.02
2017-06-27T03:55:20.827Z,18.11
2017-06-27T03:57:48.339Z,18.03
2017-06-27T04:00:14.293Z,18.00
2017-06-27T04:02:40.118Z,18.06
2017-06-27T04:05:05.985Z,18.09
2017-06-27T04:07:31.797Z,18.12
2017-06-27T04:09:57.661Z,18.05
2017-06-27T04:12:23.498Z,18.31
2017-06-27T04:14:49.310Z,18.37
2017-06-27T04:17:15.120Z,18.23
2017-06-27T04:19:40.970Z,18.28
2017-06-27T04:22:06.876Z,18.27
2017-06-27T04:24:32.822Z,18.32
2017-06-27T04:26:58.741Z,18.45
2017-06-27T04:29:24.530Z,18.33
2017-06-27T04:31:50.397Z,18.25
2017-06-27T04:34:16.185Z,18.05
2017-06-27T04:36:42.029Z,18.53
2017-06-27T04:39:07.849Z,18.29
2017-06-27T04:41:33.649Z,18.37
2017-06-27T04:43:59.497Z,18.40
2017-06-27T04:46:40.325Z,18.41
2017-06-27T04:49:06.258Z,18.59
2017-06-27T04:51:32.090Z,18.50
2017-06-27T04:53:57.986Z,18.76
2017-06-27T04:56:23.797Z,18.61
2017-06-27T04:58:49.665Z,18.70
2017-06-27T05:01:15.629Z,18.79
2017-06-27T05:03:41.422Z,18.98
2017-06-27T05:06:07.280Z,19.07
2017-06-27T05:08:33.127Z,19.03
2017-06-27T05:10:59.115Z,19.13
2017-06-27T05:13:24.960Z,19.06
2017-06-27T05:15:50.805Z,18.94
2017-06-27T05:18:16.737Z,18.97
2017-06-27T05:20:42.525Z,18.98
2017-06-27T05:23:08.441Z,19.15
2017-06-27T05:25:34.338Z,18.99
2017-06-27T05:28:00.173Z,19.05
2017-06-27T05:30:26.251Z,18.94
2017-06-27T05:32:52.053Z,18.93
2017-06-27T05:35:17.867Z,19.23
2017-06-27T05:37:43.706Z,19.38
2017-06-27T05:40:09.540Z,19.36
2017-06-27T05:42:35.341Z,19.26
2017-06-27T05:45:01.194Z,19.29
2017-06-27T05:47:27.041Z,19.60
2017-06-27T05:49:52.854Z,19.50
2017-06-27T05:52:18.850Z,19.72
2017-06-27T05:54:44.693Z,19.83
2017-06-27T05:57:10.504Z,19.72
2017-06-27T05:59:36.537Z,19.70
2017-06-27T06:02:02.470Z,19.76
2017-06-27T06:04:28.350Z,19.57
2017-06-27T06:06:54.210Z,19.54
2017-06-27T06:09:20.021Z,19.36
2017-06-27T06:11:45.999Z,19.58
2017-06-27T06:14:11.861Z,19.65
2017-06-27T06:16:37.760Z,19.31
2017-06-27T06:19:03.626Z,19.27
2017-06-27T06:21:29.444Z,19.24
2017-06-27T06:23:55.233Z,19.08
2017-06-27T06:26:21.109Z,19.38
2017-06-27T06:28:46.950Z,19.44
2017-06-27T06:31:12.745Z,19.68
2017-06-27T06:33:38.578Z,19.58
2017-06-27T06:36:04.414Z,19.60
2017-06-27T06:38:30.213Z,19.89
2017-06-27T06:40:56.039Z,20.01
2017-06-27T06:43:22.053Z,19.97
2017-06-27T06:45:47.901Z,20.13
2017-06-27T06:48:13.806Z,20.25
2017-06-27T06:50:39.605Z,20.02
2017-06-27T06:53:05.489Z,20.31
2017-06-27T06:55:31.293Z,19.84
2017-06-27T06:57:57.113Z,20.00
2017-06-27T07:00:22.984Z,20.10
2017-06-27T07:02:48.815Z,20.15
2017-06-27T07:05:14.614Z,20.23
2017-06-27T07:07:40.477Z,19.93
2017-06-27T07:10:06.470Z,20.00
2017-06-27T07:12:32.318Z,20.24
2017-06-27T07:14:58.224Z,20.71
2017-06-27T07:17:24.172Z,20.78
2017-06-27T07:19:50.170Z,20.53
2017-06-27T07:22:15.980Z,20.71
2017-06-27T07:24:41.814Z,20.80
2017-06-27T07:27:07.718Z,21.78
2017-06-27T07:29:33.590Z,21.66
2017-06-27T07:31:59.407Z,21.34
2017-06-27T07:34:25.197Z,20.56
2017-06-27T07:36:51.034Z,20.96
2017-06-27T07:39:16.919Z,21.34
2017-06-27T07:41:42.739Z,21.25
2017-06-27T07:44:08.574Z,21.24
2017-06-27T07:46:34.487Z,21.60
2017-06-27T07:49:00.298Z,21.36
2017-06-27T07:51:26.189Z,21.93
2017-06-27T07:53:52.016Z,21.80
2017-06-27T07:56:17.837Z,22.00
2017-06-27T07:58:43.678Z,21.86
2017-06-27T08:01:09.482Z,22.03
2017-06-27T08:03:35.290Z,22.03
2017-06-27T08:06:01.128Z,22.46
2017-06-27T08:08:26.982Z,23.05
2017-06-27T08:10:52.879Z,22.98
2017-06-27T08:13:18.731Z,23.37
2017-06-27T08:15:44.610Z,23.29
2017-06-27T08:18:10.453Z,23.48
2017-06-27T08:20:36.333Z,23.30
2017-06-27T08:23:02.177Z,23.59
2017-06-27T08:25:28.000Z,23.62
2017-06-27T08:27:53.869Z,23.29
2017-06-27T08:30:19.757Z,23.02
2017-06-27T08:32:45.577Z,23.45
2017-06-27T08:35:11.414Z,23.80
2017-06-27T08:37:37.318Z,23.54
2017-06-27T08:40:03.127Z,23.41
2017-06-27T08:42:28.945Z,23.47
2017-06-27T08:44:54.870Z,23.11
2017-06-27T08:47:20.776Z,22.95
2017-06-27T08:49:46.587Z,23.17
2017-06-27T08:52:12.495Z,23.02
2017-06-27T08:54:38.327Z,23.19
2017-06-27T08:57:04.139Z,23.59
2017-06-27T08:59:30.018Z,24.27
2017-06-27T09:01:55.860Z,23.90
2017-06-27T09:04:21.703Z,24.54
2017-06-27T09:06:47.541Z,24.92
2017-06-27T09:09:13.383Z,24.92
2017-06-27T09:11:39.178Z,24.39
2017-06-27T09:14:05.062Z,24.25
2017-06-27T09:16:30.866Z,24.43
2017-06-27T09:18:56.673Z,24.42
2017-06-27T09:21:22.547Z,24.65
2017-06-27T09:23:48.478Z,24.12
2017-06-27T09:26:14.331Z,23.57
2017-06-27T09:28:40.125Z,23.78
2017-06-27T09:31:06.089Z,24.05
2017-06-27T09:33:32.061Z,23.66
2017-06-27T09:35:57.966Z,23.86
2017-06-27T09:38:30.709Z,23.66
2017-06-27T09:40:56.631Z,23.57
2017-06-27T09:43:22.431Z,23.47
2017-06-27T09:45:48.262Z,23.65
2017-06-27T09:48:14.127Z,23.61
2017-06-27T09:50:40.170Z,23.89
2017-06-27T09:53:06.052Z,24.11
2017-06-27T09:55:31.976Z,24.22
2017-06-27T09:57:58.040Z,24.46
2017-06-27T10:00:24.073Z,23.73
2017-06-27T10:02:49.901Z,24.78
2017-06-27T10:05:15.875Z,25.37
2017-06-27T10:07:41.833Z,25.57
2017-06-27T10:10:07.720Z,26.08
2017-06-27T10:12:33.736Z,25.79
2017-06-27T10:14:59.615Z,25.55
2017-06-27T10:17:25.526Z,25.41
2017-06-27T10:19:52.156Z,25.75
2017-06-27T10:22:18.055Z,26.09
2017-06-27T10:24:43.907Z,25.87
2017-06-27T10:27:09.809Z,25.53
2017-06-27T10:29:35.642Z,25.57
2017-06-27T10:32:01.452Z,26.03
2017-06-27T10:34:27.404Z,25.93
2017-06-27T10:36:53.212Z,26.05
2017-06-27T10:39:19.010Z,26.36
2017-06-27T10:41:44.883Z,25.94
2017-06-27T10:44:10.706Z,26.47
2017-06-27T10:46:36.521Z,26.47
2017-06-27T10:49:02.369Z,26.39
2017-06-27T10:51:28.276Z,26.46
2017-06-27T10:53:54.099Z,27.35
2017-06-27T10:56:19.940Z,27.07
2017-06-27T10:58:45.794Z,26.94
2017-06-27T11:01:11.611Z,27.06
2017-06-27T11:03:37.429Z,27.58
2017-06-27T11:06:03.286Z,28.06
2017-06-27T11:08:29.111Z,28.58
2017-06-27T11:10:54.998Z,28.48
2017-06-27T11:13:20.841Z,27.78
2017-06-27T11:15:46.748Z,28.17
2017-06-27T11:18:12.845Z,26.88
2017-06-27T11:20:38.849Z,27.22
2017-06-27T11:23:04.764Z,27.47
2017-06-27T11:25:30.600Z,27.65
2017-06-27T11:27:56.501Z,27.47
2017-06-27T11:30:22.435Z,27.63
2017-06-27T11:32:48.260Z,27.90
2017-06-27T11:35:14.156Z,28.07
2017-06-27T11:37:40.057Z,28.11
2017-06-27T11:40:05.881Z,27.40
2017-06-27T11:42:31.769Z,27.64
2017-06-27T11:44:57.821Z,27.68
2017-06-27T11:47:23.815Z,28.28
2017-06-27T11:49:49.769Z,28.51
2017-06-27T11:52:15.605Z,26.92
2017-06-27T11:54:41.459Z,26.90
2017-06-27T11:57:07.295Z,27.54
2017-06-27T11:59:33.448Z,27.12
2017-06-27T12:02:09.564Z,28.80
2017-06-27T12:04:35.510Z,29.11
2017-06-27T12:07:05.422Z,29.87
2017-06-27T12:09:31.283Z,30.43
2017-06-27T12:11:57.159Z,30.51
2017-06-27T12:14:23.051Z,30.02
2017-06-27T12:16:48.947Z,27.98
2017-06-27T12:19:14.776Z,29.24
2017-06-27T12:21:41.605Z,28.27
2017-06-27T12:24:07.419Z,28.53
2017-06-27T12:26:33.328Z,28.96
2017-06-27T12:28:59.289Z,27.45
2017-06-27T12:31:40.110Z,28.22
2017-06-27T12:34:06.106Z,28.97
2017-06-27T12:36:32.024Z,27.08
2017-06-27T12:38:57.916Z,28.81
2017-06-27T12:41:23.885Z,29.49
2017-06-27T12:43:49.724Z,28.82
2017-06-27T12:46:15.563Z,28.79
2017-06-27T12:48:41.429Z,29.52
2017-06-27T12:51:07.415Z,29.19
2017-06-27T12:53:33.307Z,28.96
2017-06-27T12:55:59.260Z,29.20
2017-06-27T12:58:25.136Z,29.95
2017-06-27T13:00:51.122Z,29.15
2017-06-27T13:03:16.968Z,29.32
2017-06-27T13:05:42.842Z,29.85
2017-06-27T13:08:08.763Z,30.56
2017-06-27T13:10:34.610Z,29.00
2017-06-27T13:13:00.468Z,29.04
2017-06-27T13:15:26.440Z,28.56
2017-06-27T13:17:52.344Z,28.60
2017-06-27T13:20:18.497Z,30.43
2017-06-27T13:22:44.407Z,30.37
2017-06-27T13:25:10.301Z,30.58
2017-06-27T13:27:36.143Z,29.50
2017-06-27T13:30:02.026Z,29.13
2017-06-27T13:32:27.949Z,29.62
2017-06-27T13:34:53.840Z,30.06
2017-06-27T13:37:19.928Z,29.95
2017-06-27T13:39:45.823Z,31.52
2017-06-27T13:42:11.715Z,31.58
2017-06-27T13:44:37.739Z,31.12
2017-06-27T13:47:03.568Z,31.98
2017-06-27T13:49:29.501Z,31.60
2017-06-27T13:51:55.397Z,32.47
2017-06-27T13:54:21.364Z,32.28
2017-06-27T13:56:47.219Z,31.16
2017-06-27T13:59:13.606Z,31.97
2017-06-27T14:01:39.529Z,32.23
2017-06-27T14:04:06.321Z,31.28
2017-06-27T14:06:32.819Z,30.42
2017-06-27T14:08:58.720Z,31.79
2017-06-27T14:11:24.592Z,33.05
2017-06-27T14:13:50.684Z,32.50
2017-06-27T14:16:16.555Z,31.62
2017-06-27T14:18:42.403Z,31.48
2017-06-27T14:21:08.358Z,31.45
2017-06-27T14:23:34.242Z,32.20
2017-06-27T14:26:00.085Z,30.94
2017-06-27T14:28:33.087Z,31.39
2017-06-27T14:30:58.953Z,31.44
2017-06-27T14:33:24.793Z,31.82
2017-06-27T14:35:51.120Z,32.28
2017-06-27T14:38:16.998Z,32.81
2017-06-27T14:40:42.875Z,32.96
2017-06-27T14:43:08.789Z,32.20
2017-06-27T14:45:34.688Z,33.03
2017-06-27T14:48:01.104Z,33.57
2017-06-27T14:50:27.064Z,32.79
2017-06-27T14:52:52.943Z,33.22
2017-06-27T14:55:18.771Z,32.72
2017-06-27T14:57:44.603Z,32.45
2017-06-27T15:00:10.568Z,32.75
2017-06-27T15:02:36.406Z,31.74
2017-06-27T15:05:02.265Z,31.71
2017-06-27T15:07:28.152Z,31.59
2017-06-27T15:09:54.094Z,31.24
2017-06-27T15:12:19.967Z,31.34
2017-06-27T15:14:45.819Z,30.51
2017-06-27T15:17:11.798Z,29.86
2017-06-27T15:19:37.687Z,30.79
2017-06-27T15:22:03.593Z,30.61
2017-06-27T15:24:29.456Z,29.73
2017-06-27T15:26:55.416Z,29.20
2017-06-27T15:29:21.258Z,29.51
2017-06-27T15:31:47.200Z,28.96
2017-06-27T15:34:13.072Z,28.62
2017-06-27T15:36:38.969Z,28.21
2017-06-27T15:39:04.863Z,28.15
2017-06-27T15:41:30.692Z,27.51
2017-06-27T15:43:56.602Z,27.91
2017-06-27T15:46:22.544Z,28.01
2017-06-27T15:48:48.396Z,27.97
2017-06-27T15:51:14.316Z,27.84
2017-06-27T15:53:40.157Z,28.15
2017-06-27T15:56:05.983Z,28.14
2017-06-27T15:58:32.054Z,28.07
2017-06-27T16:00:57.955Z,28.16
2017-06-27T16:03:24.600Z,28.47
2017-06-27T16:05:50.521Z,29.32
2017-06-27T16:08:16.361Z,28.81
2017-06-27T16:10:42.337Z,29.37
2017-06-27T16:13:08.230Z,29.55
2017-06-27T16:15:34.101Z,30.10
2017-06-27T16:18:00.023Z,30.46
2017-06-27T16:20:26.016Z,30.17
2017-06-27T16:22:52.031Z,29.55
2017-06-27T16:25:17.891Z,29.30
2017-06-27T16:27:43.822Z,29.59
2017-06-27T16:30:09.707Z,29.06
2017-06-27T16:32:35.664Z,29.03
2017-06-27T16:35:01.516Z,28.86
2017-06-27T16:37:27.383Z,28.63
2017-06-27T16:39:53.248Z,28.04
2017-06-27T16:42:19.128Z,27.84
2017-06-27T16:44:45.052Z,27.65
2017-06-27T16:47:10.900Z,27.31
2017-06-27T16:49:36.833Z,27.13
2017-06-27T16:52:02.683Z,26.04
2017-06-27T16:54:28.551Z,25.35
2017-06-27T16:56:54.422Z,25.08
2017-06-27T16:59:20.273Z,25.65
2017-06-27T17:01:46.100Z,24.62
2017-06-27T17:04:11.992Z,25.10
2017-06-27T17:06:37.932Z,24.65
2017-06-27T17:09:03.829Z,24.04
2017-06-27T17:11:29.911Z,24.00
2017-06-27T17:13:55.916Z,24.31
2017-06-27T17:16:21.940Z,24.72
2017-06-27T17:18:47.810Z,24.35
2017-06-27T17:21:13.765Z,24.76
2017-06-27T17:23:39.730Z,24.76
2017-06-27T17:26:05.581Z,24.54
2017-06-27T17:28:31.443Z,24.30
2017-06-27T17:30:57.332Z,24.51
2017-06-27T17:33:23.174Z,24.80
2017-06-27T17:35:49.053Z,24.66
2017-06-27T17:38:14.881Z,24.76
2017-06-27T17:40:40.885Z,24.70
2017-06-27T17:43:06.760Z,24.70
2017-06-27T17:45:32.647Z,24.54
2017-06-27T17:47:58.463Z,24.42
2017-06-27T17:50:24.336Z,24.52
2017-06-27T17:52:50.151Z,24.52
2017-06-27T17:55:15.982Z,24.53
2017-06-27T17:57:41.877Z,24.39
2017-06-27T18:00:07.753Z,24.31
2017-06-27T18:02:33.577Z,24.31
2017-06-27T18:04:59.508Z,24.34
2017-06-27T18:07:25.355Z,24.24
2017-06-27T18:09:51.537Z,24.26
2017-06-27T18:12:17.605Z,24.14
2017-06-27T18:14:43.444Z,24.02
2017-06-27T18:17:09.323Z,24.16
2017-06-27T18:19:35.147Z,24.22
2017-06-27T18:22:01.117Z,23.80
2017-06-27T18:24:26.964Z,24.01
2017-06-27T18:26:52.800Z,24.25
2017-06-27T18:29:18.734Z,24.28
2017-06-27T18:31:44.560Z,23.97
2017-06-27T18:34:10.477Z,23.98
2017-06-27T18:36:36.346Z,23.67
2017-06-27T18:39:02.261Z,23.64
2017-06-27T18:41:28.182Z,23.59
2017-06-27T18:43:54.133Z,22.72
2017-06-27T18:46:20.096Z,22.33
2017-06-27T18:48:45.964Z,22.29
2017-06-27T18:51:11.790Z,21.72
2017-06-27T18:53:37.650Z,22.15
2017-06-27T18:56:03.531Z,22.12
2017-06-27T18:58:29.408Z,22.19
2017-06-27T19:00:55.261Z,22.40
2017-06-27T19:03:21.095Z,22.59
2017-06-27T19:05:47.064Z,22.72
2017-06-27T19:08:13.057Z,22.64
2017-06-27T19:10:39.109Z,22.96
2017-06-27T19:13:05.169Z,23.01
2017-06-27T19:15:31.097Z,23.20
2017-06-27T19:17:56.993Z,23.13
2017-06-27T19:20:22.908Z,23.16
2017-06-27T19:22:48.775Z,23.09
2017-06-27T19:25:14.683Z,22.79
2017-06-27T19:27:40.543Z,22.25
2017-06-27T19:30:06.400Z,22.34
2017-06-27T19:32:32.218Z,22.47
2017-06-27T19:34:58.105Z,22.69
2017-06-27T19:37:23.940Z,22.81
2017-06-27T19:39:49.940Z,22.54
2017-06-27T19:42:15.818Z,22.36
2017-06-27T19:44:41.771Z,22.27
2017-06-27T19:47:07.771Z,22.54
2017-06-27T19:49:33.625Z,22.54
2017-06-27T19:51:59.512Z,22.72
2017-06-27T19:54:25.391Z,22.80
2017-06-27T19:56:51.255Z,22.81
2017-06-27T19:59:17.105Z,22.73
2017-06-27T20:01:43.049Z,22.70
2017-06-27T20:04:08.940Z,22.48
2017-06-27T20:06:34.787Z,22.43
2017-06-27T20:09:00.766Z,22.59
2017-06-27T20:11:26.771Z,22.47
2017-06-27T20:13:52.724Z,22.20
2017-06-27T20:16:18.622Z,21.44
2017-06-27T20:18:44.587Z,21.69
2017-06-27T20:21:10.434Z,21.82
2017-06-27T20:23:36.617Z,22.09
2017-06-27T20:26:02.553Z,22.20
2017-06-27T20:28:28.516Z,22.08
2017-06-27T20:30:54.409Z,22.30
2017-06-27T20:33:20.292Z,22.30
2017-06-27T20:35:46.279Z,22.22
2017-06-27T20:38:12.226Z,22.21
2017-06-27T20:40:38.221Z,22.16
2017-06-27T20:43:04.846Z,22.15
2017-06-27T20:45:30.753Z,22.15
2017-06-27T20:47:56.708Z,22.13
2017-06-27T20:50:22.725Z,22.12
2017-06-27T20:52:48.678Z,22.00
2017-06-27T20:55:14.592Z,21.96
2017-06-27T20:57:40.461Z,21.91
2017-06-27T21:00:06.516Z,21.80
2017-06-27T21:02:32.369Z,21.84
2017-06-27T21:04:58.380Z,21.77
2017-06-27T21:07:24.326Z,21.73
2017-06-27T21:09:50.200Z,21.70
2017-06-27T21:12:16.268Z,21.58
2017-06-27T21:14:42.225Z,21.61
2017-06-27T21:17:08.208Z,21.61
2017-06-27T21:19:34.168Z,21.55
2017-06-27T21:22:00.053Z,21.59
2017-06-27T21:24:26.048Z,21.49
2017-06-27T21:26:51.975Z,21.29
2017-06-27T21:29:18.022Z,21.14
2017-06-27T21:31:43.876Z,21.37
2017-06-27T21:34:09.768Z,21.29
2017-06-27T21:36:35.672Z,21.30
2017-06-27T21:39:01.509Z,21.36
2017-06-27T21:41:27.404Z,21.27
2017-06-27T21:43:53.425Z,21.28
2017-06-27T21:46:19.344Z,21.23
2017-06-27T21:48:45.227Z,21.18
2017-06-27T21:51:11.091Z,21.05
2017-06-27T21:53:37.032Z,21.11
2017-06-27T21:56:02.885Z,21.16
2017-06-27T21:58:28.965Z,21.08
2017-06-27T22:00:54.872Z,20.91
2017-06-27T22:03:20.811Z,20.93
2017-06-27T22:05:46.716Z,20.88
2017-06-27T22:08:12.686Z,20.97
2017-06-27T22:10:38.527Z,20.80
2017-06-27T22:13:04.382Z,20.71
2017-06-27T22:15:30.317Z,20.83
2017-06-27T22:17:56.236Z,20.57
2017-06-27T22:20:22.119Z,20.43
2017-06-27T22:22:48.178Z,20.43
2017-06-27T22:25:14.091Z,20.35
2017-06-27T22:27:40.064Z,20.28
2017-06-27T22:30:05.929Z,20.45
2017-06-27T22:32:31.764Z,20.40
2017-06-27T22:34:57.627Z,20.29
2017-06-27T22:37:23.509Z,20.41
2017-06-27T22:39:49.408Z,20.26
2017-06-27T22:42:15.322Z,20.14
2017-06-27T22:44:41.268Z,20.09
2017-06-27T22:47:07.107Z,19.99
2017-06-27T22:49:32.984Z,20.25
2017-06-27T22:51:58.908Z,20.23
2017-06-27T22:54:24.831Z,20.28
2017-06-27T22:56:50.827Z,20.25
2017-06-27T22:59:16.782Z,20.18
2017-06-27T23:01:42.616Z,20.08
2017-06-27T23:04:08.503Z,20.33
2017-06-27T23:06:34.441Z,20.19
2017-06-27T23:09:00.332Z,20.15
2017-06-27T23:11:26.277Z,20.32
2017-06-27T23:13:52.125Z,20.26
2017-06-27T23:16:18.013Z,20.20
2017-06-27T23:18:44.007Z,20.39
2017-06-27T23:21:09.869Z,20.27
2017-06-27T23:23:35.786Z,20.31
2017-06-27T23:26:02.493Z,19.93
2017-06-27T23:28:28.528Z,20.01
2017-06-27T23:30:54.478Z,19.98
2017-06-27T23:33:20.340Z,20.02
2017-06-27T23:35:53.127Z,20.08
2017-06-27T23:38:19.104Z,19.98
2017-06-27T23:40:44.981Z,19.91
2017-06-27T23:43:11.017Z,19.82
2017-06-27T23:45:37.000Z,19.71
2017-06-27T23:48:02.846Z,19.70
2017-06-27T23:50:28.730Z,19.82
2017-06-27T23:52:54.621Z,19.76
2017-06-27T23:55:20.451Z,19.65
2017-06-27T23:57:48.578Z,19.42
